createdAt,value
2023-02-22T00:00:14.713Z,3.41
2023-02-22T00:01:14.978Z,3.37
2023-02-22T00:02:14.789Z,3.43
2023-02-22T00:03:15.697Z,3.43
2023-02-22T00:04:14.812Z,3.46
2023-02-22T00:05:14.844Z,3.45
2023-02-22T00:06:14.864Z,3.34
2023-02-22T00:07:14.917Z,3.37
2023-02-22T00:08:14.922Z,3.28
2023-02-22T00:09:14.953Z,3.31
2023-02-22T00:10:15.050Z,3.30
2023-02-22T00:11:15.401Z,3.33
2023-02-22T00:12:15.038Z,3.35
2023-02-22T00:13:15.078Z,3.17
2023-02-22T00:14:15.112Z,3.24
2023-02-22T00:15:15.135Z,3.15
2023-02-22T00:16:15.200Z,3.13
2023-02-22T00:17:15.204Z,3.17
2023-02-22T00:18:15.235Z,3.20
2023-02-22T00:19:15.273Z,3.14
2023-02-22T00:20:16.360Z,3.22
2023-02-22T00:21:15.633Z,3.31
2023-02-22T03:24:21.771Z,2.13
2023-02-22T03:25:21.807Z,2.14
2023-02-22T03:26:21.861Z,2.19
2023-02-22T03:27:21.899Z,2.20
2023-02-22T03:28:21.945Z,2.19
2023-02-22T03:29:22.007Z,2.17
2023-02-22T03:30:22.076Z,2.17
2023-02-22T03:31:22.206Z,2.15
2023-02-22T03:32:22.153Z,2.26
2023-02-22T03:33:22.179Z,2.14
2023-02-22T03:34:22.212Z,2.08
2023-02-22T03:35:22.253Z,2.17
2023-02-22T03:36:22.381Z,2.22
2023-02-22T03:37:22.402Z,2.20
2023-02-22T03:38:22.386Z,2.23
2023-02-22T03:39:22.397Z,2.18
2023-02-22T03:40:22.429Z,2.14
2023-02-22T03:41:22.460Z,2.21
2023-02-22T03:42:22.495Z,2.26
2023-02-22T03:43:22.524Z,2.26
2023-02-22T03:44:22.555Z,2.22
2023-02-22T03:45:22.588Z,2.24
2023-02-22T03:46:22.663Z,2.25
2023-02-22T03:47:22.660Z,2.23
2023-02-22T03:48:22.684Z,2.19
2023-02-22T03:49:22.714Z,2.23
2023-02-22T03:50:22.754Z,2.24
2023-02-22T03:51:23.106Z,2.25
2023-02-22T03:52:22.807Z,2.24
2023-02-22T03:53:22.855Z,2.29
2023-02-22T03:54:22.901Z,2.30
2023-02-22T03:55:22.923Z,2.28
2023-02-22T03:56:22.967Z,2.22
2023-02-22T03:57:23.000Z,2.26
2023-02-22T03:58:23.048Z,2.27
2023-02-22T03:59:23.086Z,2.27
2023-02-22T04:00:23.201Z,2.23
2023-02-22T04:01:23.135Z,2.20
2023-02-22T04:02:23.164Z,2.24
2023-02-22T04:03:23.207Z,2.21
2023-02-22T04:04:23.251Z,2.13
2023-02-22T04:05:23.266Z,2.15
2023-02-22T04:06:23.291Z,2.24
2023-02-22T04:07:23.323Z,2.14
2023-02-22T04:08:24.218Z,2.17
2023-02-22T04:09:23.393Z,2.16
2023-02-22T04:10:23.389Z,2.21
2023-02-22T04:11:23.416Z,2.17
2023-02-22T04:12:23.435Z,2.17
2023-02-22T04:13:23.585Z,2.17
2023-02-22T04:14:23.985Z,2.21
2023-02-22T04:15:23.604Z,2.17
2023-02-22T04:16:23.544Z,2.16
2023-02-22T04:17:23.575Z,2.15
2023-02-22T04:18:23.596Z,2.17
2023-02-22T04:19:24.199Z,2.18
2023-02-22T04:20:23.640Z,2.20
2023-02-22T04:21:23.670Z,2.22
2023-02-22T04:22:23.694Z,2.22
2023-02-22T04:23:23.718Z,2.25
2023-02-22T04:24:24.699Z,2.27
2023-02-22T04:25:23.760Z,2.24
2023-02-22T04:26:23.780Z,2.26
2023-02-22T04:27:23.783Z,2.25
2023-02-22T04:28:23.798Z,2.25
2023-02-22T04:29:23.865Z,2.26
2023-02-22T04:30:23.894Z,2.28
2023-02-22T04:31:23.937Z,2.28
2023-02-22T04:32:23.920Z,2.30
2023-02-22T04:33:23.989Z,2.27
2023-02-22T04:34:23.917Z,2.28
2023-02-22T04:35:23.935Z,2.27
2023-02-22T04:36:24.707Z,2.32
2023-02-22T04:37:24.779Z,2.26
2023-02-22T04:38:23.940Z,2.25
2023-02-22T04:39:24.713Z,2.24
2023-02-22T04:40:23.944Z,2.29
2023-02-22T04:41:25.470Z,2.23
2023-02-22T04:42:23.931Z,2.25
2023-02-22T04:43:23.934Z,2.21
2023-02-22T04:44:23.934Z,2.28
2023-02-22T04:45:23.950Z,2.23
2023-02-22T04:46:23.937Z,2.26
2023-02-22T04:47:23.931Z,2.22
2023-02-22T04:48:23.937Z,2.24
2023-02-22T04:49:23.937Z,2.21
2023-02-22T04:50:23.929Z,2.23
2023-02-22T04:51:23.932Z,2.26
2023-02-22T04:52:23.946Z,2.22
2023-02-22T04:53:23.945Z,2.20
2023-02-22T04:54:23.943Z,2.20
2023-02-22T04:55:23.941Z,2.19
2023-02-22T04:56:24.712Z,2.17
2023-02-22T04:57:23.953Z,2.15
2023-02-22T04:58:23.983Z,2.11
2023-02-22T04:59:23.965Z,2.10
2023-02-22T05:00:24.231Z,2.09
2023-02-22T05:01:23.977Z,2.09
2023-02-22T05:02:23.994Z,2.12
2023-02-22T05:16:24.061Z,2.12
2023-02-22T05:17:24.012Z,2.13
2023-02-22T05:18:24.033Z,2.12
2023-02-22T05:20:24.254Z,2.16
2023-02-22T05:21:24.248Z,2.10
2023-02-22T05:22:24.227Z,2.10
2023-02-22T05:23:24.220Z,2.11
2023-02-22T05:24:24.223Z,2.10
2023-02-22T05:25:24.224Z,2.11
2023-02-22T05:26:24.232Z,2.10
2023-02-22T05:27:24.230Z,2.11
2023-02-22T05:28:24.225Z,2.10
2023-02-22T05:29:24.231Z,2.09
2023-02-22T05:30:24.240Z,2.08
2023-02-22T05:31:24.329Z,2.06
2023-02-22T05:32:24.278Z,2.03
2023-02-22T05:33:24.230Z,2.00
2023-02-22T05:34:24.233Z,1.99
2023-02-22T05:35:24.236Z,1.96
2023-02-22T05:36:24.255Z,1.96
2023-02-22T05:37:24.248Z,2.00
2023-02-22T05:38:24.250Z,1.97
2023-02-22T05:39:24.248Z,1.98
2023-02-22T05:40:24.256Z,2.01
2023-02-22T05:41:24.254Z,1.98
2023-02-22T05:42:24.257Z,1.93
2023-02-22T05:43:24.251Z,1.90
2023-02-22T05:44:24.262Z,1.93
2023-02-22T05:45:24.271Z,1.90
2023-02-22T05:46:24.306Z,1.93
2023-02-22T05:47:24.263Z,1.95
2023-02-22T05:48:24.262Z,1.90
2023-02-22T05:49:24.272Z,1.93
2023-02-22T05:50:24.273Z,1.91
2023-02-22T05:51:24.266Z,1.95
2023-02-22T05:52:24.268Z,1.91
2023-02-22T05:53:24.276Z,1.94
2023-02-22T05:54:24.275Z,1.89
2023-02-22T05:55:24.359Z,1.91
2023-02-22T05:56:24.289Z,1.87
2023-02-22T05:57:24.366Z,1.89
2023-02-22T05:58:24.295Z,1.91
2023-02-22T05:59:24.304Z,1.88
2023-02-22T06:00:25.240Z,1.90
2023-02-22T06:01:24.312Z,1.89
2023-02-22T06:02:24.319Z,1.90
2023-02-22T06:03:24.440Z,1.87
2023-02-22T06:04:24.331Z,1.91
2023-02-22T06:05:24.359Z,1.93
2023-02-22T06:06:24.324Z,1.94
2023-02-22T06:07:24.346Z,1.91
2023-02-22T06:08:25.239Z,1.90
2023-02-22T06:09:24.336Z,1.94
2023-02-22T06:10:24.337Z,1.88
2023-02-22T06:11:24.331Z,1.84
2023-02-22T06:12:24.346Z,1.84
2023-02-22T06:13:24.347Z,1.88
2023-02-22T06:14:24.352Z,1.87
2023-02-22T06:15:24.426Z,1.89
2023-02-22T06:16:24.377Z,1.85
2023-02-22T06:17:24.342Z,1.81
2023-02-22T06:18:24.349Z,1.78
2023-02-22T06:19:24.350Z,1.74
2023-02-22T06:20:24.352Z,1.73
2023-02-22T06:21:24.365Z,1.72
2023-02-22T06:22:24.474Z,1.74
2023-02-22T06:23:24.430Z,1.72
2023-02-22T06:24:24.436Z,1.71
2023-02-22T06:25:24.448Z,1.69
2023-02-22T06:26:24.447Z,1.71
2023-02-22T06:27:24.449Z,1.68
2023-02-22T06:28:24.453Z,1.74
2023-02-22T06:29:24.469Z,1.72
2023-02-22T06:30:24.551Z,1.76
2023-02-22T06:31:25.235Z,1.81
2023-02-22T06:32:24.585Z,1.86
2023-02-22T06:33:24.654Z,1.84
2023-02-22T06:34:24.690Z,1.90
2023-02-22T06:35:24.824Z,1.94
2023-02-22T06:36:24.874Z,2.06
2023-02-22T06:37:24.838Z,2.15
2023-02-22T06:38:24.883Z,2.23
2023-02-22T06:39:24.922Z,2.29
2023-02-22T06:40:24.950Z,2.41
2023-02-22T06:41:25.047Z,2.50
2023-02-22T06:42:25.083Z,2.64
2023-02-22T06:43:25.074Z,2.85
2023-02-22T06:44:25.084Z,2.93
2023-02-22T06:45:25.156Z,3.02
2023-02-22T06:46:25.115Z,3.10
2023-02-22T06:47:25.145Z,3.20
2023-02-22T06:48:25.159Z,3.27
2023-02-22T06:49:25.173Z,3.41
2023-02-22T06:50:25.219Z,3.52
2023-02-22T06:51:25.192Z,3.65
2023-02-22T06:52:25.205Z,3.87
2023-02-22T06:53:25.220Z,3.99
2023-02-22T06:54:25.211Z,4.09
2023-02-22T06:55:25.231Z,3.00
2023-02-22T06:56:25.252Z,2.03
2023-02-22T06:57:25.319Z,1.65
2023-02-22T06:58:25.314Z,1.05
2023-02-22T06:59:25.331Z,0.94
2023-02-22T07:00:25.362Z,0.64
2023-02-22T07:01:25.402Z,0.59
2023-02-22T07:02:25.449Z,0.57
2023-02-22T07:03:25.614Z,0.67
2023-02-22T07:04:25.479Z,0.65
2023-02-22T07:05:25.495Z,0.62
2023-02-22T07:06:25.501Z,0.90
2023-02-22T07:07:25.509Z,1.20
2023-02-22T07:08:25.561Z,1.39
2023-02-22T07:09:25.607Z,1.59
2023-02-22T07:10:25.647Z,1.79
2023-02-22T07:11:25.725Z,1.85
2023-02-22T07:12:25.685Z,2.01
2023-02-22T07:13:25.742Z,2.11
2023-02-22T07:14:25.749Z,2.20
2023-02-22T07:15:25.769Z,2.35
2023-02-22T07:16:25.915Z,2.45
2023-02-22T07:17:25.925Z,2.63
2023-02-22T07:18:25.910Z,2.71
2023-02-22T07:19:26.767Z,2.79
2023-02-22T07:20:26.039Z,3.02
2023-02-22T07:21:26.063Z,3.05
2023-02-22T07:22:26.092Z,3.11
2023-02-22T07:23:26.126Z,3.21
2023-02-22T07:24:26.151Z,3.38
2023-02-22T07:25:26.193Z,3.46
2023-02-22T07:26:26.223Z,3.80
2023-02-22T07:27:26.221Z,3.89
2023-02-22T07:28:26.236Z,4.10
2023-02-22T07:29:26.808Z,4.37
2023-02-22T07:30:26.384Z,4.45
2023-02-22T07:31:28.234Z,4.61
2023-02-22T07:32:26.382Z,4.83
2023-02-22T07:33:26.257Z,4.98
2023-02-22T07:34:26.244Z,5.07
2023-02-22T07:35:26.234Z,5.20
2023-02-22T07:36:26.311Z,5.36
2023-02-22T07:37:26.229Z,5.50
2023-02-22T07:38:26.215Z,5.53
2023-02-22T07:39:26.212Z,5.79
2023-02-22T07:40:26.205Z,5.95
2023-02-22T07:41:26.206Z,6.07
2023-02-22T07:42:26.188Z,6.31
2023-02-22T07:43:26.246Z,6.45
2023-02-22T07:44:26.189Z,6.63
2023-02-22T07:45:26.227Z,6.65
2023-02-22T07:46:26.177Z,6.65
2023-02-22T07:47:26.778Z,6.86
2023-02-22T07:48:26.155Z,7.04
2023-02-22T07:49:26.140Z,7.21
2023-02-22T07:50:26.138Z,7.17
2023-02-22T07:51:26.141Z,7.33
2023-02-22T07:52:26.124Z,7.36
2023-02-22T07:53:28.616Z,7.55
2023-02-22T07:54:26.420Z,7.56
2023-02-22T07:55:26.385Z,7.59
2023-02-22T07:56:26.415Z,7.69
2023-02-22T07:57:26.440Z,7.90
2023-02-22T07:58:28.202Z,8.16
2023-02-22T07:59:26.503Z,8.35
2023-02-22T08:00:26.686Z,8.23
2023-02-22T08:01:26.568Z,8.70
2023-02-22T08:02:26.705Z,8.61
2023-02-22T08:03:26.653Z,8.57
2023-02-22T08:04:26.645Z,8.93
2023-02-22T08:05:26.643Z,8.87
2023-02-22T08:06:26.661Z,8.97
2023-02-22T08:07:26.670Z,9.05
2023-02-22T08:08:26.702Z,9.17
2023-02-22T11:06:31.865Z,3.17
2023-02-22T11:10:31.857Z,3.21
2023-02-22T11:17:31.867Z,3.35
2023-02-22T11:20:31.864Z,3.47
2023-02-22T11:24:43.647Z,3.56
2023-02-22T12:34:33.218Z,3.78
2023-02-22T12:35:33.226Z,3.68
2023-02-22T12:36:33.287Z,3.75
2023-02-22T12:37:33.358Z,3.76
2023-02-22T12:38:33.407Z,3.73
2023-02-22T12:39:43.831Z,3.63
2023-02-22T12:40:34.467Z,3.64
2023-02-22T12:41:33.510Z,3.65
2023-02-22T12:42:33.456Z,3.67
2023-02-22T12:43:33.439Z,3.74
2023-02-22T12:44:33.435Z,3.67
2023-02-22T12:45:33.426Z,3.64
2023-02-22T12:46:33.479Z,3.65
2023-02-22T12:47:33.436Z,3.66
2023-02-22T12:48:34.320Z,3.66
2023-02-22T12:49:33.442Z,3.48
2023-02-22T12:50:33.447Z,3.56
2023-02-22T12:54:33.521Z,3.37
2023-02-22T12:57:33.576Z,3.42
2023-02-22T12:58:33.579Z,3.32
2023-02-22T12:59:33.560Z,3.47
2023-02-22T13:01:33.580Z,3.48
2023-02-22T13:02:33.594Z,3.45
2023-02-22T13:03:33.588Z,3.35
2023-02-22T13:04:33.914Z,3.43
2023-02-22T13:05:33.645Z,3.40
2023-02-22T13:07:33.615Z,3.35
2023-02-22T13:08:33.610Z,3.33
2023-02-22T13:09:33.612Z,3.38
2023-02-22T13:10:33.615Z,3.36
2023-02-22T13:11:33.622Z,3.32
2023-02-22T13:12:34.405Z,3.31
2023-02-22T13:13:33.618Z,3.32
2023-02-22T13:14:33.626Z,3.39
2023-02-22T13:15:33.619Z,3.28
2023-02-22T13:16:33.620Z,3.31
2023-02-22T13:17:33.630Z,3.31
2023-02-22T13:18:33.641Z,3.34
2023-02-22T13:19:33.616Z,3.27
2023-02-22T13:20:33.614Z,3.26
2023-02-22T13:21:33.617Z,3.22
2023-02-22T13:22:33.621Z,3.19
2023-02-22T13:23:33.686Z,3.18
2023-02-22T13:24:34.618Z,3.18
2023-02-22T13:25:33.612Z,3.21
2023-02-22T13:26:33.913Z,3.23
2023-02-22T13:27:33.594Z,3.27
2023-02-22T13:28:33.586Z,3.35
2023-02-22T13:29:33.578Z,3.30
2023-02-22T13:30:33.611Z,3.32
2023-02-22T13:31:36.120Z,3.28
2023-02-22T13:32:33.673Z,3.39
2023-02-22T13:34:33.550Z,3.32
2023-02-22T13:35:33.551Z,3.27
2023-02-22T13:36:33.535Z,3.34
2023-02-22T13:37:35.660Z,3.25
2023-02-22T13:38:33.517Z,3.26
2023-02-22T13:39:33.517Z,3.27
2023-02-22T13:40:33.519Z,3.28
2023-02-22T13:41:33.497Z,3.31
2023-02-22T13:42:33.542Z,3.34
2023-02-22T13:43:33.489Z,3.27
2023-02-22T13:44:33.476Z,3.34
2023-02-22T13:45:33.469Z,3.29
2023-02-22T13:46:33.465Z,3.34
2023-02-22T13:47:33.471Z,3.32
2023-02-22T13:48:33.464Z,3.35
2023-02-22T13:49:33.440Z,3.33
2023-02-22T13:50:33.442Z,3.30
2023-02-22T13:51:33.500Z,3.36
2023-02-22T13:52:33.437Z,3.32
2023-02-22T13:53:33.449Z,3.33
2023-02-22T13:54:33.451Z,3.30
2023-02-22T13:55:33.484Z,3.28
2023-02-22T13:56:33.497Z,3.26
2023-02-22T13:57:33.521Z,3.26
2023-02-22T13:58:33.528Z,3.24
2023-02-22T13:59:36.034Z,3.22
2023-02-22T14:00:33.542Z,3.22
2023-02-22T14:08:33.479Z,3.19
2023-02-22T14:09:33.473Z,3.19
2023-02-22T14:10:33.464Z,3.15
2023-02-22T14:11:33.468Z,3.14
2023-02-22T14:12:33.486Z,3.14
2023-02-22T14:13:33.492Z,3.15
2023-02-22T14:14:33.435Z,3.13
2023-02-22T14:15:33.431Z,3.12
2023-02-22T14:16:33.445Z,3.08
2023-02-22T14:17:33.429Z,3.09
2023-02-22T14:18:33.417Z,3.04
2023-02-22T14:19:33.396Z,3.08
2023-02-22T14:20:33.401Z,3.04
2023-02-22T14:21:33.451Z,3.03
2023-02-22T14:22:33.496Z,3.04
2023-02-22T14:23:33.393Z,3.02
2023-02-22T14:24:33.369Z,3.07
2023-02-22T14:25:33.374Z,3.00
2023-02-22T14:26:33.364Z,3.03
2023-02-22T14:27:33.360Z,3.01
2023-02-22T14:28:33.346Z,2.99
2023-02-22T14:29:33.341Z,3.02
2023-02-22T14:30:33.425Z,3.00
2023-02-22T14:31:37.077Z,2.98
2023-02-22T14:32:33.465Z,2.99
2023-02-22T14:33:33.313Z,2.99
2023-02-22T14:34:33.302Z,3.00
2023-02-22T14:35:44.593Z,3.02
2023-02-22T14:36:34.303Z,2.99
2023-02-22T14:37:33.291Z,3.00
2023-02-22T14:38:33.388Z,3.02
2023-02-22T14:39:33.271Z,3.02
2023-02-22T14:40:33.262Z,3.04
2023-02-22T14:41:33.249Z,3.03
2023-02-22T14:42:33.278Z,3.01
2023-02-22T14:43:33.328Z,3.01
2023-02-22T14:44:33.235Z,3.00
2023-02-22T14:45:33.319Z,2.99
2023-02-22T14:46:33.220Z,2.99
2023-02-22T14:47:33.937Z,2.99
2023-02-22T14:48:33.209Z,2.99
2023-02-22T14:49:33.193Z,2.92
2023-02-22T14:50:33.189Z,2.93
2023-02-22T14:51:33.200Z,2.93
2023-02-22T14:52:33.266Z,2.96
2023-02-22T14:53:33.352Z,2.96
2023-02-22T14:54:33.328Z,2.92
2023-02-22T14:55:33.350Z,2.96
2023-02-22T14:56:33.472Z,2.95
2023-02-22T14:57:33.463Z,2.96
2023-02-22T14:58:33.486Z,2.94
2023-02-22T14:59:33.539Z,2.96
2023-02-22T15:00:33.576Z,2.93
2023-02-22T15:01:48.890Z,2.94
2023-02-22T15:02:34.725Z,2.95
2023-02-22T15:03:33.655Z,2.96
2023-02-22T15:04:33.654Z,2.96
2023-02-22T15:05:33.676Z,2.98
2023-02-22T15:06:33.602Z,2.95
2023-02-22T15:07:33.608Z,2.94
2023-02-22T15:08:33.587Z,2.94
2023-02-22T15:09:34.963Z,2.93
2023-02-22T15:10:33.578Z,2.94
2023-02-22T15:11:33.609Z,2.92
2023-02-22T15:12:33.592Z,2.89
2023-02-22T15:13:33.552Z,2.93
2023-02-22T15:14:33.553Z,2.90
2023-02-22T15:15:33.546Z,2.89
2023-02-22T15:16:33.562Z,2.86
2023-02-22T15:17:33.536Z,2.91
2023-02-22T15:18:33.526Z,2.87
2023-02-22T15:19:33.513Z,2.83
2023-02-22T15:20:33.570Z,2.82
2023-02-22T15:21:33.505Z,2.84
2023-02-22T15:22:33.511Z,2.82
2023-02-22T15:23:33.499Z,2.83
2023-02-22T15:24:33.483Z,2.80
2023-02-22T15:25:33.480Z,2.80
2023-02-22T15:26:33.473Z,2.79
2023-02-22T15:27:33.487Z,2.77
2023-02-22T15:30:33.519Z,2.80
2023-02-22T15:31:33.503Z,2.80
2023-02-22T15:32:33.536Z,2.78
2023-02-22T15:33:33.569Z,2.79
2023-02-22T15:34:33.637Z,2.78
2023-02-22T15:35:33.856Z,2.78
2023-02-22T15:36:33.717Z,2.78
2023-02-22T15:37:33.771Z,2.78
2023-02-22T15:38:33.823Z,2.75
2023-02-22T15:39:33.859Z,2.76
2023-02-22T15:40:33.920Z,2.76
2023-02-22T15:41:33.964Z,2.72
2023-02-22T15:42:34.018Z,2.74
2023-02-22T15:43:34.064Z,2.73
2023-02-22T15:44:34.121Z,2.68
2023-02-22T15:45:34.179Z,2.68
2023-02-22T15:46:34.222Z,2.66
2023-02-22T15:47:34.371Z,2.65
2023-02-22T15:48:34.332Z,2.65
2023-02-22T15:49:34.374Z,2.67
2023-02-22T15:50:34.466Z,2.67
2023-02-22T15:51:34.485Z,2.64
2023-02-22T15:52:34.554Z,2.63
2023-02-22T15:53:34.611Z,2.63
2023-02-22T15:54:34.711Z,2.59
2023-02-22T15:55:34.723Z,2.62
2023-02-22T15:56:34.777Z,2.61
2023-02-22T15:57:34.847Z,2.59
2023-02-22T15:58:34.894Z,2.59
2023-02-22T15:59:34.961Z,2.57
2023-02-22T16:00:35.004Z,2.58
2023-02-22T16:01:35.151Z,2.57
2023-02-22T16:02:35.148Z,2.55
2023-02-22T16:03:35.482Z,2.56
2023-02-22T16:04:35.243Z,2.56
2023-02-22T16:05:35.279Z,2.53
2023-02-22T16:06:35.444Z,2.52
2023-02-22T16:07:35.400Z,2.52
2023-02-22T16:08:45.784Z,2.53
2023-02-22T16:09:36.449Z,2.54
2023-02-22T16:10:35.460Z,2.54
2023-02-22T16:11:35.464Z,2.54
2023-02-22T16:12:35.436Z,2.52
2023-02-22T16:13:35.437Z,2.52
2023-02-22T16:14:35.413Z,2.51
2023-02-22T16:15:35.411Z,2.53
2023-02-22T16:16:35.501Z,2.50
2023-02-22T16:17:35.479Z,2.47
2023-02-22T16:18:35.402Z,2.50
2023-02-22T16:19:35.411Z,2.48
2023-02-22T16:20:35.433Z,2.47
2023-02-22T16:21:35.474Z,2.45
2023-02-22T16:22:35.527Z,2.49
2023-02-22T16:23:35.571Z,2.46
2023-02-22T16:24:35.627Z,2.44
2023-02-22T16:25:35.799Z,2.41
2023-02-22T16:26:35.676Z,2.39
2023-02-22T16:27:35.697Z,2.41
2023-02-22T16:28:35.747Z,2.42
2023-02-22T16:29:35.832Z,2.38
2023-02-22T16:30:35.923Z,2.40
2023-02-22T16:31:35.968Z,2.36
2023-02-22T16:32:35.873Z,2.39
2023-02-22T16:33:35.857Z,2.39
2023-02-22T16:34:35.928Z,2.34
2023-02-22T16:35:35.884Z,2.35
2023-02-22T16:36:35.887Z,2.36
2023-02-22T16:37:35.888Z,2.36
2023-02-22T16:38:35.928Z,2.36
2023-02-22T16:39:35.967Z,2.34
2023-02-22T16:40:35.954Z,2.33
2023-02-22T16:41:35.984Z,2.30
2023-02-22T16:42:35.992Z,2.31
2023-02-22T16:43:37.099Z,2.31
2023-02-22T16:44:36.040Z,2.30
2023-02-22T16:45:36.154Z,2.30
2023-02-22T16:46:37.008Z,2.30
2023-02-22T16:47:36.146Z,2.33
2023-02-22T16:48:36.188Z,2.31
2023-02-22T16:49:36.093Z,2.26
2023-02-22T16:50:36.093Z,2.27
2023-02-22T16:51:36.095Z,2.27
2023-02-22T16:52:36.086Z,2.31
2023-02-22T16:53:36.114Z,2.27
2023-02-22T16:54:36.100Z,2.28
2023-02-22T16:55:36.098Z,2.26
2023-02-22T16:56:36.095Z,2.28
2023-02-22T16:57:36.103Z,2.27
2023-02-22T16:58:36.126Z,2.27
2023-02-22T16:59:36.110Z,2.24
2023-02-22T17:00:36.126Z,2.25
2023-02-22T17:01:36.140Z,2.22
2023-02-22T17:02:36.120Z,2.27
2023-02-22T17:03:36.127Z,2.23
2023-02-22T17:04:36.122Z,2.23
2023-02-22T17:05:36.253Z,2.20
2023-02-22T17:06:36.131Z,2.22
2023-02-22T17:07:36.138Z,2.20
2023-02-22T17:08:36.149Z,2.19
2023-02-22T17:09:36.149Z,2.15
2023-02-22T17:10:36.144Z,2.16
2023-02-22T17:11:36.143Z,2.16
2023-02-22T17:12:36.203Z,2.21
2023-02-22T17:13:36.150Z,2.17
2023-02-22T17:14:36.147Z,2.19
2023-02-22T17:15:36.173Z,2.19
2023-02-22T17:16:36.154Z,2.19
2023-02-22T17:17:36.182Z,2.19
2023-02-22T17:18:36.185Z,2.17
2023-02-22T17:19:37.646Z,2.16
2023-02-22T17:20:36.153Z,2.15
2023-02-22T17:21:36.158Z,2.13
2023-02-22T17:22:36.160Z,2.15
2023-02-22T17:23:36.170Z,2.13
2023-02-22T17:24:36.173Z,2.11
2023-02-22T17:25:36.172Z,2.08
2023-02-22T17:26:36.180Z,2.12
2023-02-22T17:27:36.180Z,2.11
2023-02-22T17:28:36.247Z,2.08
2023-02-22T17:29:36.195Z,2.09
2023-02-22T17:30:36.223Z,2.08
2023-02-22T17:31:36.234Z,2.12
2023-02-22T17:32:36.310Z,2.13
2023-02-22T17:33:36.216Z,2.09
2023-02-22T17:34:36.235Z,2.09
2023-02-22T17:35:37.094Z,2.10
2023-02-22T17:36:36.296Z,2.07
2023-02-22T17:37:36.250Z,2.06
2023-02-22T17:38:36.264Z,2.08
2023-02-22T17:39:36.268Z,2.03
2023-02-22T17:40:36.339Z,2.07
2023-02-22T17:41:36.985Z,2.07
2023-02-22T17:42:36.284Z,2.08
2023-02-22T17:43:36.284Z,2.08
2023-02-22T17:44:36.290Z,2.08
2023-02-22T17:45:36.402Z,2.09
2023-02-22T17:46:36.402Z,2.05
2023-02-22T17:47:36.324Z,2.07
2023-02-22T17:48:36.337Z,2.03
2023-02-22T17:49:36.342Z,2.02
2023-02-22T17:50:36.354Z,2.01
2023-02-22T17:52:36.374Z,2.02
2023-02-22T17:53:36.384Z,2.03
2023-02-22T17:54:36.404Z,2.05
2023-02-22T17:55:36.400Z,2.08
2023-02-22T17:56:36.435Z,2.04
2023-02-22T17:57:36.449Z,2.02
2023-02-22T17:58:36.497Z,2.04
2023-02-22T17:59:36.459Z,2.05
2023-02-22T18:00:36.469Z,2.02
2023-02-22T22:48:43.108Z,1.25
2023-02-22T22:49:43.130Z,1.24
2023-02-22T22:50:43.156Z,1.23
2023-02-22T22:51:43.191Z,1.25
2023-02-22T22:52:43.215Z,1.23
2023-02-22T22:53:43.237Z,1.21
2023-02-22T22:54:43.299Z,1.20
2023-02-22T22:55:43.295Z,1.21
2023-02-22T22:56:43.311Z,1.20
2023-02-22T22:57:43.339Z,1.21
2023-02-22T22:58:43.370Z,1.21
2023-02-22T22:59:43.403Z,1.22
2023-02-22T23:00:43.445Z,1.21
2023-02-22T23:01:43.461Z,1.22
2023-02-22T23:02:43.535Z,1.22
2023-02-22T23:03:43.599Z,1.22
2023-02-22T23:04:43.542Z,1.20
2023-02-22T23:05:43.563Z,1.20
2023-02-22T23:06:43.615Z,1.20
2023-02-22T23:07:43.621Z,1.20
2023-02-22T23:08:43.655Z,1.20
2023-02-22T23:09:43.680Z,1.20
2023-02-22T23:10:43.713Z,1.20
2023-02-22T23:11:43.729Z,1.18
2023-02-22T23:12:43.753Z,1.19
2023-02-22T23:13:43.778Z,1.22
2023-02-22T23:14:43.926Z,1.21
2023-02-22T23:15:43.924Z,1.18
2023-02-22T23:16:43.870Z,1.17
2023-02-22T23:17:43.899Z,1.18
2023-02-22T23:18:43.919Z,1.16
2023-02-22T23:19:43.953Z,1.17
2023-02-22T23:20:43.987Z,1.16
2023-02-22T23:21:44.628Z,1.16
2023-02-22T23:22:44.030Z,1.16
2023-02-22T23:23:44.053Z,1.16
2023-02-22T23:24:44.133Z,1.15
2023-02-22T23:25:44.105Z,1.17
2023-02-22T23:26:44.138Z,1.15
2023-02-22T23:27:44.219Z,1.15
2023-02-22T23:28:44.187Z,1.17
2023-02-22T23:29:44.210Z,1.16
2023-02-22T23:30:44.266Z,1.18
2023-02-22T23:31:44.375Z,1.17
2023-02-22T23:32:44.289Z,1.16
2023-02-22T23:33:44.408Z,1.16
2023-02-22T23:34:44.360Z,1.15
2023-02-22T23:35:44.465Z,1.17
2023-02-22T23:36:44.456Z,1.15
2023-02-22T23:37:44.436Z,1.19
2023-02-22T23:38:44.460Z,1.16
2023-02-22T23:39:44.489Z,1.15
2023-02-22T23:40:44.517Z,1.16
2023-02-22T23:41:44.553Z,1.15
2023-02-22T23:42:44.570Z,1.15
2023-02-22T23:43:44.589Z,1.16
2023-02-22T23:44:44.685Z,1.15
2023-02-22T23:45:44.645Z,1.17
2023-02-22T23:46:44.732Z,1.16
2023-02-22T23:47:44.691Z,1.16
2023-02-22T23:48:44.735Z,1.16
2023-02-22T23:49:44.759Z,1.15
2023-02-22T23:50:44.774Z,1.17
2023-02-22T23:51:44.800Z,1.14
2023-02-22T23:52:45.651Z,1.16
2023-02-22T23:53:44.849Z,1.19
2023-02-22T23:54:44.871Z,1.19
2023-02-22T23:55:44.897Z,1.17
2023-02-22T23:56:44.931Z,1.15
2023-02-22T23:57:44.960Z,1.16
2023-02-22T23:58:44.979Z,1.15
2023-02-22T23:59:45.001Z,1.16
